Terminal Aerodrome Forecast
Issued by NWS

Home | Current Version | Previous Version | Graphics & Text | Print | Product List | Glossary On
Versions: 1 2 3 4 5 6 7 8 9 10 11 12 13 14 15 16 17
192
FTUS43 KMPX 131720
TAFAXN
TAF
KAXN 131720Z 1318/1418 18006KT P6SM SKC
     FM140900 17008KT P6SM BKN070
     FM141300 18010KT P6SM BKN035
     FM141500 20012KT P6SM -SN OVC020=

USA.gov is the U.S. government's official web portal to all federal, state and local government web resources and services.